sensor_id;sensor_type;location;lat;lon;timestamp;P1;durP1;ratioP1;P2;durP2;ratioP2
14778;SDS011;7481;53.750;10.570;2023-06-14T00:00:08;3.28;;;2.80;;
14778;SDS011;7481;53.750;10.570;2023-06-14T00:04:30;4.80;;;3.03;;
14778;SDS011;7481;53.750;10.570;2023-06-14T00:08:53;4.70;;;2.83;;
14778;SDS011;7481;53.750;10.570;2023-06-14T00:13:15;3.15;;;2.55;;
14778;SDS011;7481;53.750;10.570;2023-06-14T00:17:38;4.95;;;2.70;;
14778;SDS011;7481;53.750;10.570;2023-06-14T00:22:01;3.63;;;2.67;;
14778;SDS011;7481;53.750;10.570;2023-06-14T00:26:24;5.53;;;3.28;;
14778;SDS011;7481;53.750;10.570;2023-06-14T00:30:47;7.27;;;3.40;;
14778;SDS011;7481;53.750;10.570;2023-06-14T00:35:10;6.22;;;2.60;;
14778;SDS011;7481;53.750;10.570;2023-06-14T00:39:33;3.87;;;2.90;;
14778;SDS011;7481;53.750;10.570;2023-06-14T00:43:56;4.07;;;2.50;;
14778;SDS011;7481;53.750;10.570;2023-06-14T00:48:18;4.85;;;2.85;;
14778;SDS011;7481;53.750;10.570;2023-06-14T00:52:41;3.20;;;2.40;;
14778;SDS011;7481;53.750;10.570;2023-06-14T00:57:04;4.32;;;2.58;;
14778;SDS011;7481;53.750;10.570;2023-06-14T01:01:27;4.57;;;2.88;;
14778;SDS011;7481;53.750;10.570;2023-06-14T01:05:51;3.75;;;2.70;;
14778;SDS011;7481;53.750;10.570;2023-06-14T01:14:38;3.80;;;2.60;;
14778;SDS011;7481;53.750;10.570;2023-06-14T01:19:01;4.03;;;3.00;;
14778;SDS011;7481;53.750;10.570;2023-06-14T01:23:24;3.87;;;2.70;;
14778;SDS011;7481;53.750;10.570;2023-06-14T01:32:16;3.50;;;2.67;;
14778;SDS011;7481;53.750;10.570;2023-06-14T01:36:40;4.80;;;2.60;;
14778;SDS011;7481;53.750;10.570;2023-06-14T01:41:03;7.47;;;2.90;;
14778;SDS011;7481;53.750;10.570;2023-06-14T01:45:26;4.70;;;2.73;;
14778;SDS011;7481;53.750;10.570;2023-06-14T01:49:49;3.50;;;2.87;;
14778;SDS011;7481;53.750;10.570;2023-06-14T01:54:12;5.67;;;2.53;;
14778;SDS011;7481;53.750;10.570;2023-06-14T01:58:35;5.73;;;2.90;;
14778;SDS011;7481;53.750;10.570;2023-06-14T02:02:57;4.43;;;3.07;;
14778;SDS011;7481;53.750;10.570;2023-06-14T02:07:20;4.20;;;3.10;;
14778;SDS011;7481;53.750;10.570;2023-06-14T02:11:43;4.37;;;3.00;;
14778;SDS011;7481;53.750;10.570;2023-06-14T02:16:05;4.83;;;3.17;;
14778;SDS011;7481;53.750;10.570;2023-06-14T02:20:28;6.47;;;3.30;;
14778;SDS011;7481;53.750;10.570;2023-06-14T02:24:51;3.27;;;2.67;;
14778;SDS011;7481;53.750;10.570;2023-06-14T02:29:23;4.87;;;3.00;;
14778;SDS011;7481;53.750;10.570;2023-06-14T02:33:45;4.27;;;2.80;;
14778;SDS011;7481;53.750;10.570;2023-06-14T02:38:07;3.30;;;2.50;;
14778;SDS011;7481;53.750;10.570;2023-06-14T02:42:30;3.97;;;2.80;;
14778;SDS011;7481;53.750;10.570;2023-06-14T02:46:53;3.77;;;2.73;;
14778;SDS011;7481;53.750;10.570;2023-06-14T02:51:16;4.07;;;2.60;;
14778;SDS011;7481;53.750;10.570;2023-06-14T02:55:39;4.80;;;3.43;;
14778;SDS011;7481;53.750;10.570;2023-06-14T03:00:02;5.17;;;2.93;;
14778;SDS011;7481;53.750;10.570;2023-06-14T03:04:24;3.87;;;2.70;;
14778;SDS011;7481;53.750;10.570;2023-06-14T03:08:47;2.97;;;2.67;;
14778;SDS011;7481;53.750;10.570;2023-06-14T03:13:10;4.13;;;3.03;;
14778;SDS011;7481;53.750;10.570;2023-06-14T03:17:33;5.30;;;3.00;;
14778;SDS011;7481;53.750;10.570;2023-06-14T03:21:56;4.20;;;2.80;;
14778;SDS011;7481;53.750;10.570;2023-06-14T03:26:19;6.97;;;3.33;;
14778;SDS011;7481;53.750;10.570;2023-06-14T03:30:42;5.27;;;3.40;;
14778;SDS011;7481;53.750;10.570;2023-06-14T03:35:05;4.53;;;3.27;;
14778;SDS011;7481;53.750;10.570;2023-06-14T03:39:27;5.20;;;3.30;;
14778;SDS011;7481;53.750;10.570;2023-06-14T03:43:50;8.50;;;4.17;;
14778;SDS011;7481;53.750;10.570;2023-06-14T03:48:12;4.00;;;2.93;;
14778;SDS011;7481;53.750;10.570;2023-06-14T03:52:35;5.23;;;3.30;;
14778;SDS011;7481;53.750;10.570;2023-06-14T03:56:58;5.10;;;3.30;;
14778;SDS011;7481;53.750;10.570;2023-06-14T04:01:21;5.00;;;3.17;;
14778;SDS011;7481;53.750;10.570;2023-06-14T04:05:48;4.75;;;4.18;;
14778;SDS011;7481;53.750;10.570;2023-06-14T04:10:12;6.65;;;4.10;;
14778;SDS011;7481;53.750;10.570;2023-06-14T04:14:35;7.18;;;3.55;;
14778;SDS011;7481;53.750;10.570;2023-06-14T04:18:57;4.90;;;3.17;;
14778;SDS011;7481;53.750;10.570;2023-06-14T04:23:20;5.50;;;3.20;;
14778;SDS011;7481;53.750;10.570;2023-06-14T04:27:43;6.35;;;3.58;;
14778;SDS011;7481;53.750;10.570;2023-06-14T04:32:06;8.75;;;4.03;;
14778;SDS011;7481;53.750;10.570;2023-06-14T04:36:32;8.20;;;3.83;;
14778;SDS011;7481;53.750;10.570;2023-06-14T04:40:56;5.95;;;3.78;;
14778;SDS011;7481;53.750;10.570;2023-06-14T04:45:18;6.47;;;3.97;;
14778;SDS011;7481;53.750;10.570;2023-06-14T04:49:41;6.47;;;3.88;;
14778;SDS011;7481;53.750;10.570;2023-06-14T04:54:03;5.88;;;3.83;;
14778;SDS011;7481;53.750;10.570;2023-06-14T04:58:26;5.85;;;3.80;;
14778;SDS011;7481;53.750;10.570;2023-06-14T05:02:50;4.97;;;3.40;;
14778;SDS011;7481;53.750;10.570;2023-06-14T05:07:14;5.45;;;3.60;;
14778;SDS011;7481;53.750;10.570;2023-06-14T05:11:37;7.78;;;4.05;;
14778;SDS011;7481;53.750;10.570;2023-06-14T05:15:59;5.22;;;3.35;;
14778;SDS011;7481;53.750;10.570;2023-06-14T05:20:23;5.80;;;3.15;;
14778;SDS011;7481;53.750;10.570;2023-06-14T05:24:48;5.25;;;3.55;;
14778;SDS011;7481;53.750;10.570;2023-06-14T05:29:11;6.32;;;3.38;;
14778;SDS011;7481;53.750;10.570;2023-06-14T05:33:34;7.35;;;3.30;;
14778;SDS011;7481;53.750;10.570;2023-06-14T05:37:56;8.00;;;3.90;;
14778;SDS011;7481;53.750;10.570;2023-06-14T05:42:19;7.20;;;3.83;;
14778;SDS011;7481;53.750;10.570;2023-06-14T05:46:41;6.05;;;3.60;;
14778;SDS011;7481;53.750;10.570;2023-06-14T05:51:04;8.23;;;3.63;;
14778;SDS011;7481;53.750;10.570;2023-06-14T05:55:30;8.23;;;3.60;;
14778;SDS011;7481;53.750;10.570;2023-06-14T05:59:52;5.45;;;3.50;;
14778;SDS011;7481;53.750;10.570;2023-06-14T06:04:15;7.22;;;3.72;;
14778;SDS011;7481;53.750;10.570;2023-06-14T06:08:37;13.98;;;4.00;;
14778;SDS011;7481;53.750;10.570;2023-06-14T06:13:00;5.90;;;3.40;;
14778;SDS011;7481;53.750;10.570;2023-06-14T06:17:22;4.85;;;3.47;;
14778;SDS011;7481;53.750;10.570;2023-06-14T06:21:45;10.23;;;3.80;;
14778;SDS011;7481;53.750;10.570;2023-06-14T06:26:07;4.82;;;3.50;;
14778;SDS011;7481;53.750;10.570;2023-06-14T06:30:29;5.93;;;3.58;;
14778;SDS011;7481;53.750;10.570;2023-06-14T06:34:52;6.22;;;3.88;;
14778;SDS011;7481;53.750;10.570;2023-06-14T06:39:14;5.60;;;3.05;;
14778;SDS011;7481;53.750;10.570;2023-06-14T06:43:37;5.18;;;3.22;;
14778;SDS011;7481;53.750;10.570;2023-06-14T06:47:59;4.32;;;2.95;;
14778;SDS011;7481;53.750;10.570;2023-06-14T06:52:22;3.53;;;2.80;;
14778;SDS011;7481;53.750;10.570;2023-06-14T06:56:45;4.82;;;2.75;;
14778;SDS011;7481;53.750;10.570;2023-06-14T07:01:07;4.80;;;3.03;;
14778;SDS011;7481;53.750;10.570;2023-06-14T07:05:30;7.50;;;3.20;;
14778;SDS011;7481;53.750;10.570;2023-06-14T07:09:53;4.82;;;2.75;;
14778;SDS011;7481;53.750;10.570;2023-06-14T07:14:16;7.13;;;3.17;;
14778;SDS011;7481;53.750;10.570;2023-06-14T07:18:38;4.60;;;2.92;;
14778;SDS011;7481;53.750;10.570;2023-06-14T07:23:01;5.10;;;3.08;;
14778;SDS011;7481;53.750;10.570;2023-06-14T07:27:23;3.25;;;2.70;;
14778;SDS011;7481;53.750;10.570;2023-06-14T07:31:46;4.40;;;2.80;;
14778;SDS011;7481;53.750;10.570;2023-06-14T07:36:08;5.72;;;3.17;;
14778;SDS011;7481;53.750;10.570;2023-06-14T07:40:30;5.25;;;2.80;;
14778;SDS011;7481;53.750;10.570;2023-06-14T07:44:53;4.80;;;3.22;;
14778;SDS011;7481;53.750;10.570;2023-06-14T07:49:15;5.78;;;3.00;;
14778;SDS011;7481;53.750;10.570;2023-06-14T07:53:38;5.60;;;2.95;;
14778;SDS011;7481;53.750;10.570;2023-06-14T07:58:08;3.28;;;2.75;;
14778;SDS011;7481;53.750;10.570;2023-06-14T08:02:31;5.78;;;3.13;;
14778;SDS011;7481;53.750;10.570;2023-06-14T08:06:54;4.75;;;2.83;;
14778;SDS011;7481;53.750;10.570;2023-06-14T08:11:17;4.22;;;2.83;;
14778;SDS011;7481;53.750;10.570;2023-06-14T08:15:40;4.50;;;2.80;;
14778;SDS011;7481;53.750;10.570;2023-06-14T08:20:02;3.88;;;3.25;;
14778;SDS011;7481;53.750;10.570;2023-06-14T08:24:28;4.43;;;3.40;;
14778;SDS011;7481;53.750;10.570;2023-06-14T08:28:50;5.20;;;3.28;;
14778;SDS011;7481;53.750;10.570;2023-06-14T08:33:13;5.75;;;3.22;;
14778;SDS011;7481;53.750;10.570;2023-06-14T08:37:41;4.75;;;3.30;;
14778;SDS011;7481;53.750;10.570;2023-06-14T08:42:03;6.53;;;3.53;;
14778;SDS011;7481;53.750;10.570;2023-06-14T08:46:35;6.82;;;3.42;;
14778;SDS011;7481;53.750;10.570;2023-06-14T08:50:59;7.47;;;3.47;;
14778;SDS011;7481;53.750;10.570;2023-06-14T08:55:26;4.80;;;3.20;;
14778;SDS011;7481;53.750;10.570;2023-06-14T08:59:49;13.43;;;3.65;;
14778;SDS011;7481;53.750;10.570;2023-06-14T09:04:13;7.28;;;3.63;;
14778;SDS011;7481;53.750;10.570;2023-06-14T09:08:36;5.32;;;3.33;;
14778;SDS011;7481;53.750;10.570;2023-06-14T09:13:02;4.95;;;3.30;;
14778;SDS011;7481;53.750;10.570;2023-06-14T09:17:24;7.35;;;3.45;;
14778;SDS011;7481;53.750;10.570;2023-06-14T09:21:47;5.07;;;3.58;;
14778;SDS011;7481;53.750;10.570;2023-06-14T09:26:19;6.38;;;3.35;;
14778;SDS011;7481;53.750;10.570;2023-06-14T09:30:41;5.03;;;3.10;;
14778;SDS011;7481;53.750;10.570;2023-06-14T09:35:05;4.18;;;3.13;;
14778;SDS011;7481;53.750;10.570;2023-06-14T09:39:28;8.05;;;3.72;;
14778;SDS011;7481;53.750;10.570;2023-06-14T09:43:50;5.80;;;3.30;;
14778;SDS011;7481;53.750;10.570;2023-06-14T09:48:13;6.18;;;3.20;;
14778;SDS011;7481;53.750;10.570;2023-06-14T09:52:39;4.35;;;3.08;;
14778;SDS011;7481;53.750;10.570;2023-06-14T09:57:04;5.88;;;3.17;;
14778;SDS011;7481;53.750;10.570;2023-06-14T10:01:30;4.43;;;3.40;;
14778;SDS011;7481;53.750;10.570;2023-06-14T10:05:54;7.07;;;3.40;;
14778;SDS011;7481;53.750;10.570;2023-06-14T10:10:17;4.90;;;3.05;;
14778;SDS011;7481;53.750;10.570;2023-06-14T10:14:40;5.00;;;2.85;;
14778;SDS011;7481;53.750;10.570;2023-06-14T10:19:22;5.57;;;3.10;;
14778;SDS011;7481;53.750;10.570;2023-06-14T10:23:47;5.88;;;3.08;;
14778;SDS011;7481;53.750;10.570;2023-06-14T10:33:00;5.07;;;3.13;;
14778;SDS011;7481;53.750;10.570;2023-06-14T10:37:21;5.43;;;3.60;;
14778;SDS011;7481;53.750;10.570;2023-06-14T10:41:50;4.90;;;3.10;;
14778;SDS011;7481;53.750;10.570;2023-06-14T10:46:17;5.10;;;2.88;;
14778;SDS011;7481;53.750;10.570;2023-06-14T10:50:43;6.57;;;2.72;;
14778;SDS011;7481;53.750;10.570;2023-06-14T10:55:12;5.30;;;3.15;;
14778;SDS011;7481;53.750;10.570;2023-06-14T10:59:44;3.85;;;2.85;;
14778;SDS011;7481;53.750;10.570;2023-06-14T11:04:08;4.82;;;3.42;;
14778;SDS011;7481;53.750;10.570;2023-06-14T11:13:00;7.18;;;2.90;;
14778;SDS011;7481;53.750;10.570;2023-06-14T11:17:23;6.13;;;3.08;;
14778;SDS011;7481;53.750;10.570;2023-06-14T11:21:48;3.78;;;3.10;;
14778;SDS011;7481;53.750;10.570;2023-06-14T11:26:11;8.30;;;2.90;;
14778;SDS011;7481;53.750;10.570;2023-06-14T11:30:33;6.90;;;3.40;;
14778;SDS011;7481;53.750;10.570;2023-06-14T11:34:56;5.60;;;3.28;;
14778;SDS011;7481;53.750;10.570;2023-06-14T11:39:23;5.60;;;3.17;;
14778;SDS011;7481;53.750;10.570;2023-06-14T11:43:46;3.33;;;3.00;;
14778;SDS011;7481;53.750;10.570;2023-06-14T11:48:08;7.47;;;3.38;;
14778;SDS011;7481;53.750;10.570;2023-06-14T11:52:31;8.77;;;3.08;;
14778;SDS011;7481;53.750;10.570;2023-06-14T11:56:54;4.72;;;3.10;;
14778;SDS011;7481;53.750;10.570;2023-06-14T12:01:17;6.85;;;2.72;;
14778;SDS011;7481;53.750;10.570;2023-06-14T12:05:39;6.30;;;2.85;;
14778;SDS011;7481;53.750;10.570;2023-06-14T12:14:29;5.88;;;2.92;;
14778;SDS011;7481;53.750;10.570;2023-06-14T12:18:52;6.07;;;3.17;;
14778;SDS011;7481;53.750;10.570;2023-06-14T12:23:15;10.82;;;3.10;;
14778;SDS011;7481;53.750;10.570;2023-06-14T12:27:39;4.30;;;2.90;;
14778;SDS011;7481;53.750;10.570;2023-06-14T12:32:02;6.15;;;2.90;;
14778;SDS011;7481;53.750;10.570;2023-06-14T12:36:25;4.45;;;2.88;;
14778;SDS011;7481;53.750;10.570;2023-06-14T12:40:48;5.47;;;3.00;;
14778;SDS011;7481;53.750;10.570;2023-06-14T12:45:10;6.50;;;3.10;;
14778;SDS011;7481;53.750;10.570;2023-06-14T12:49:33;4.05;;;2.78;;
14778;SDS011;7481;53.750;10.570;2023-06-14T12:53:56;5.55;;;2.78;;
14778;SDS011;7481;53.750;10.570;2023-06-14T12:58:18;9.88;;;2.97;;
14778;SDS011;7481;53.750;10.570;2023-06-14T13:02:41;5.03;;;2.95;;
14778;SDS011;7481;53.750;10.570;2023-06-14T13:07:04;3.22;;;2.78;;
14778;SDS011;7481;53.750;10.570;2023-06-14T13:11:26;4.65;;;2.60;;
14778;SDS011;7481;53.750;10.570;2023-06-14T13:15:49;6.60;;;3.10;;
14778;SDS011;7481;53.750;10.570;2023-06-14T13:20:12;6.25;;;2.80;;
14778;SDS011;7481;53.750;10.570;2023-06-14T13:24:36;6.90;;;2.83;;
14778;SDS011;7481;53.750;10.570;2023-06-14T13:28:59;3.88;;;3.00;;
14778;SDS011;7481;53.750;10.570;2023-06-14T13:33:22;5.43;;;2.90;;
14778;SDS011;7481;53.750;10.570;2023-06-14T13:37:45;4.65;;;2.90;;
14778;SDS011;7481;53.750;10.570;2023-06-14T13:42:08;5.03;;;3.05;;
14778;SDS011;7481;53.750;10.570;2023-06-14T13:46:32;5.22;;;2.75;;
14778;SDS011;7481;53.750;10.570;2023-06-14T13:50:54;5.78;;;2.72;;
14778;SDS011;7481;53.750;10.570;2023-06-14T13:55:17;3.95;;;2.65;;
14778;SDS011;7481;53.750;10.570;2023-06-14T13:59:39;4.35;;;2.80;;
14778;SDS011;7481;53.750;10.570;2023-06-14T14:04:02;9.18;;;2.90;;
14778;SDS011;7481;53.750;10.570;2023-06-14T14:08:24;5.13;;;3.17;;
14778;SDS011;7481;53.750;10.570;2023-06-14T14:12:47;5.32;;;2.67;;
14778;SDS011;7481;53.750;10.570;2023-06-14T14:17:10;7.85;;;2.95;;
14778;SDS011;7481;53.750;10.570;2023-06-14T14:21:33;5.60;;;2.78;;
14778;SDS011;7481;53.750;10.570;2023-06-14T14:25:57;6.60;;;2.72;;
14778;SDS011;7481;53.750;10.570;2023-06-14T14:30:19;4.53;;;2.55;;
14778;SDS011;7481;53.750;10.570;2023-06-14T14:34:45;6.57;;;2.78;;
14778;SDS011;7481;53.750;10.570;2023-06-14T14:39:08;4.72;;;2.50;;
14778;SDS011;7481;53.750;10.570;2023-06-14T14:43:30;5.00;;;2.83;;
14778;SDS011;7481;53.750;10.570;2023-06-14T14:47:53;6.95;;;2.60;;
14778;SDS011;7481;53.750;10.570;2023-06-14T14:52:17;6.78;;;2.67;;
14778;SDS011;7481;53.750;10.570;2023-06-14T14:56:45;3.28;;;2.40;;
14778;SDS011;7481;53.750;10.570;2023-06-14T15:01:07;5.20;;;2.97;;
14778;SDS011;7481;53.750;10.570;2023-06-14T15:05:30;6.38;;;2.53;;
14778;SDS011;7481;53.750;10.570;2023-06-14T15:09:52;7.22;;;2.63;;
14778;SDS011;7481;53.750;10.570;2023-06-14T15:14:15;6.50;;;2.85;;
14778;SDS011;7481;53.750;10.570;2023-06-14T15:18:37;6.45;;;2.78;;
14778;SDS011;7481;53.750;10.570;2023-06-14T15:22:59;4.03;;;2.42;;
14778;SDS011;7481;53.750;10.570;2023-06-14T15:27:22;5.22;;;2.65;;
14778;SDS011;7481;53.750;10.570;2023-06-14T15:31:46;4.55;;;2.40;;
14778;SDS011;7481;53.750;10.570;2023-06-14T15:36:09;7.80;;;2.50;;
14778;SDS011;7481;53.750;10.570;2023-06-14T15:40:32;3.05;;;2.20;;
14778;SDS011;7481;53.750;10.570;2023-06-14T15:44:55;4.10;;;2.63;;
14778;SDS011;7481;53.750;10.570;2023-06-14T15:49:17;5.10;;;2.78;;
14778;SDS011;7481;53.750;10.570;2023-06-14T15:53:40;2.60;;;2.40;;
14778;SDS011;7481;53.750;10.570;2023-06-14T15:58:03;3.33;;;2.55;;
14778;SDS011;7481;53.750;10.570;2023-06-14T16:02:25;3.13;;;2.50;;
14778;SDS011;7481;53.750;10.570;2023-06-14T16:06:48;4.00;;;2.40;;
14778;SDS011;7481;53.750;10.570;2023-06-14T16:11:10;4.05;;;2.40;;
14778;SDS011;7481;53.750;10.570;2023-06-14T16:15:33;6.28;;;2.90;;
14778;SDS011;7481;53.750;10.570;2023-06-14T16:19:55;3.35;;;2.10;;
14778;SDS011;7481;53.750;10.570;2023-06-14T16:24:18;3.70;;;2.20;;
14778;SDS011;7481;53.750;10.570;2023-06-14T16:28:40;5.80;;;2.45;;
14778;SDS011;7481;53.750;10.570;2023-06-14T16:33:06;2.63;;;2.28;;
14778;SDS011;7481;53.750;10.570;2023-06-14T16:37:28;3.03;;;2.10;;
14778;SDS011;7481;53.750;10.570;2023-06-14T16:41:51;3.55;;;2.17;;
14778;SDS011;7481;53.750;10.570;2023-06-14T16:46:13;3.75;;;2.30;;
14778;SDS011;7481;53.750;10.570;2023-06-14T16:50:36;2.80;;;2.42;;
14778;SDS011;7481;53.750;10.570;2023-06-14T16:54:58;3.88;;;2.40;;
14778;SDS011;7481;53.750;10.570;2023-06-14T16:59:21;5.15;;;2.65;;
14778;SDS011;7481;53.750;10.570;2023-06-14T17:03:43;4.32;;;2.50;;
14778;SDS011;7481;53.750;10.570;2023-06-14T17:08:06;2.80;;;2.25;;
14778;SDS011;7481;53.750;10.570;2023-06-14T17:12:29;4.82;;;2.40;;
14778;SDS011;7481;53.750;10.570;2023-06-14T17:16:51;2.63;;;2.08;;
14778;SDS011;7481;53.750;10.570;2023-06-14T17:21:14;3.72;;;2.53;;
14778;SDS011;7481;53.750;10.570;2023-06-14T17:25:36;4.43;;;2.33;;
14778;SDS011;7481;53.750;10.570;2023-06-14T17:29:59;6.35;;;2.42;;
14778;SDS011;7481;53.750;10.570;2023-06-14T17:34:22;7.28;;;3.05;;
14778;SDS011;7481;53.750;10.570;2023-06-14T17:38:45;3.55;;;2.20;;
14778;SDS011;7481;53.750;10.570;2023-06-14T17:43:07;2.90;;;2.47;;
14778;SDS011;7481;53.750;10.570;2023-06-14T17:47:30;2.95;;;2.28;;
14778;SDS011;7481;53.750;10.570;2023-06-14T17:51:57;4.20;;;2.60;;
14778;SDS011;7481;53.750;10.570;2023-06-14T17:56:19;4.43;;;2.42;;
14778;SDS011;7481;53.750;10.570;2023-06-14T18:00:42;3.97;;;2.50;;
14778;SDS011;7481;53.750;10.570;2023-06-14T18:05:04;2.58;;;2.25;;
14778;SDS011;7481;53.750;10.570;2023-06-14T18:09:27;4.93;;;2.50;;
14778;SDS011;7481;53.750;10.570;2023-06-14T18:13:49;3.90;;;2.35;;
14778;SDS011;7481;53.750;10.570;2023-06-14T18:18:13;4.43;;;2.20;;
14778;SDS011;7481;53.750;10.570;2023-06-14T18:22:36;4.25;;;2.30;;
14778;SDS011;7481;53.750;10.570;2023-06-14T18:26:58;4.22;;;2.28;;
14778;SDS011;7481;53.750;10.570;2023-06-14T18:31:22;3.15;;;2.40;;
14778;SDS011;7481;53.750;10.570;2023-06-14T18:35:44;4.78;;;2.15;;
14778;SDS011;7481;53.750;10.570;2023-06-14T18:40:07;4.78;;;2.40;;
14778;SDS011;7481;53.750;10.570;2023-06-14T18:44:30;4.45;;;2.20;;
14778;SDS011;7481;53.750;10.570;2023-06-14T18:48:52;2.65;;;2.40;;
14778;SDS011;7481;53.750;10.570;2023-06-14T18:53:15;5.32;;;2.60;;
14778;SDS011;7481;53.750;10.570;2023-06-14T18:57:37;2.95;;;2.47;;
14778;SDS011;7481;53.750;10.570;2023-06-14T19:02:00;4.97;;;2.40;;
14778;SDS011;7481;53.750;10.570;2023-06-14T19:06:22;2.50;;;2.30;;
14778;SDS011;7481;53.750;10.570;2023-06-14T19:10:47;5.65;;;2.55;;
14778;SDS011;7481;53.750;10.570;2023-06-14T19:15:09;3.25;;;2.33;;
14778;SDS011;7481;53.750;10.570;2023-06-14T19:19:32;4.53;;;2.38;;
14778;SDS011;7481;53.750;10.570;2023-06-14T19:23:54;4.20;;;2.05;;
14778;SDS011;7481;53.750;10.570;2023-06-14T19:28:17;7.18;;;2.22;;
14778;SDS011;7481;53.750;10.570;2023-06-14T19:32:42;3.72;;;2.35;;
14778;SDS011;7481;53.750;10.570;2023-06-14T19:37:06;2.90;;;2.45;;
14778;SDS011;7481;53.750;10.570;2023-06-14T19:41:28;2.85;;;2.50;;
14778;SDS011;7481;53.750;10.570;2023-06-14T19:45:52;2.65;;;2.08;;
14778;SDS011;7481;53.750;10.570;2023-06-14T19:50:14;3.97;;;2.60;;
14778;SDS011;7481;53.750;10.570;2023-06-14T19:54:37;4.28;;;2.60;;
14778;SDS011;7481;53.750;10.570;2023-06-14T19:58:59;4.43;;;2.53;;
14778;SDS011;7481;53.750;10.570;2023-06-14T20:03:23;2.88;;;2.50;;
14778;SDS011;7481;53.750;10.570;2023-06-14T20:07:45;5.03;;;2.45;;
14778;SDS011;7481;53.750;10.570;2023-06-14T20:12:08;3.53;;;2.67;;
14778;SDS011;7481;53.750;10.570;2023-06-14T20:16:31;5.82;;;2.30;;
14778;SDS011;7481;53.750;10.570;2023-06-14T20:20:54;4.03;;;2.40;;
14778;SDS011;7481;53.750;10.570;2023-06-14T20:25:16;3.28;;;2.20;;
14778;SDS011;7481;53.750;10.570;2023-06-14T20:29:39;3.28;;;2.50;;
14778;SDS011;7481;53.750;10.570;2023-06-14T20:34:02;3.15;;;2.63;;
14778;SDS011;7481;53.750;10.570;2023-06-14T20:38:26;3.75;;;2.58;;
14778;SDS011;7481;53.750;10.570;2023-06-14T20:42:49;6.25;;;2.70;;
14778;SDS011;7481;53.750;10.570;2023-06-14T20:47:11;3.60;;;2.67;;
14778;SDS011;7481;53.750;10.570;2023-06-14T20:51:36;4.50;;;2.72;;
14778;SDS011;7481;53.750;10.570;2023-06-14T20:55:59;3.05;;;2.38;;
14778;SDS011;7481;53.750;10.570;2023-06-14T21:00:22;3.47;;;2.60;;
14778;SDS011;7481;53.750;10.570;2023-06-14T21:04:44;3.88;;;2.53;;
14778;SDS011;7481;53.750;10.570;2023-06-14T21:09:07;4.63;;;2.90;;
14778;SDS011;7481;53.750;10.570;2023-06-14T21:13:30;4.57;;;2.83;;
14778;SDS011;7481;53.750;10.570;2023-06-14T21:17:52;3.80;;;2.80;;
14778;SDS011;7481;53.750;10.570;2023-06-14T21:22:15;4.53;;;2.88;;
14778;SDS011;7481;53.750;10.570;2023-06-14T21:26:37;3.72;;;2.58;;
14778;SDS011;7481;53.750;10.570;2023-06-14T21:31:00;3.97;;;2.53;;
14778;SDS011;7481;53.750;10.570;2023-06-14T21:35:22;3.10;;;2.42;;
14778;SDS011;7481;53.750;10.570;2023-06-14T21:39:44;3.65;;;2.47;;
14778;SDS011;7481;53.750;10.570;2023-06-14T21:44:07;4.47;;;2.97;;
14778;SDS011;7481;53.750;10.570;2023-06-14T21:48:29;5.75;;;2.70;;
14778;SDS011;7481;53.750;10.570;2023-06-14T21:52:52;3.95;;;2.42;;
14778;SDS011;7481;53.750;10.570;2023-06-14T21:57:15;4.78;;;2.67;;
14778;SDS011;7481;53.750;10.570;2023-06-14T22:01:37;3.22;;;2.70;;
14778;SDS011;7481;53.750;10.570;2023-06-14T22:05:59;6.53;;;2.72;;
14778;SDS011;7481;53.750;10.570;2023-06-14T22:10:22;2.65;;;2.40;;
14778;SDS011;7481;53.750;10.570;2023-06-14T22:14:45;5.22;;;2.90;;
14778;SDS011;7481;53.750;10.570;2023-06-14T22:19:08;4.13;;;3.00;;
14778;SDS011;7481;53.750;10.570;2023-06-14T22:23:30;4.78;;;2.85;;
14778;SDS011;7481;53.750;10.570;2023-06-14T22:27:59;5.75;;;2.45;;
14778;SDS011;7481;53.750;10.570;2023-06-14T22:32:25;4.50;;;3.13;;
14778;SDS011;7481;53.750;10.570;2023-06-14T22:36:48;3.28;;;2.55;;
14778;SDS011;7481;53.750;10.570;2023-06-14T22:41:14;3.47;;;2.65;;
14778;SDS011;7481;53.750;10.570;2023-06-14T22:45:37;3.85;;;2.83;;
14778;SDS011;7481;53.750;10.570;2023-06-14T22:50:00;4.50;;;2.70;;
14778;SDS011;7481;53.750;10.570;2023-06-14T22:54:30;4.05;;;3.05;;
14778;SDS011;7481;53.750;10.570;2023-06-14T22:58:53;3.67;;;2.95;;
14778;SDS011;7481;53.750;10.570;2023-06-14T23:03:16;4.85;;;2.78;;
14778;SDS011;7481;53.750;10.570;2023-06-14T23:07:39;5.65;;;3.25;;
14778;SDS011;7481;53.750;10.570;2023-06-14T23:12:03;5.00;;;3.17;;
14778;SDS011;7481;53.750;10.570;2023-06-14T23:16:25;5.43;;;2.97;;
14778;SDS011;7481;53.750;10.570;2023-06-14T23:20:49;4.05;;;2.90;;
14778;SDS011;7481;53.750;10.570;2023-06-14T23:25:13;5.70;;;3.20;;
14778;SDS011;7481;53.750;10.570;2023-06-14T23:29:36;6.30;;;3.15;;
14778;SDS011;7481;53.750;10.570;2023-06-14T23:33:58;4.45;;;3.00;;
14778;SDS011;7481;53.750;10.570;2023-06-14T23:38:23;4.43;;;2.95;;
14778;SDS011;7481;53.750;10.570;2023-06-14T23:42:46;3.00;;;2.58;;
14778;SDS011;7481;53.750;10.570;2023-06-14T23:47:12;3.72;;;3.00;;
14778;SDS011;7481;53.750;10.570;2023-06-14T23:51:34;3.10;;;2.80;;
14778;SDS011;7481;53.750;10.570;2023-06-14T23:55:59;3.90;;;3.03;;
